sensor_id;sensor_type;location;lat;lon;timestamp;pressure;altitude;pressure_sealevel;temperature;humidity
68320;BME280;55168;51.120;17.024;2023-01-28T00:00:00;100890;;;-0.6;100.0
68320;BME280;55168;51.120;17.024;2023-01-28T00:01:03;100900;;;-0.6;100.0
68320;BME280;55168;51.120;17.024;2023-01-28T00:02:00;100890;;;-0.6;100.0
68320;BME280;55168;51.120;17.024;2023-01-28T00:03:00;100890;;;-0.5;100.0
68320;BME280;55168;51.120;17.024;2023-01-28T00:04:00;100900;;;-0.6;100.0
68320;BME280;55168;51.120;17.024;2023-01-28T00:05:00;100890;;;-0.6;100.0
68320;BME280;55168;51.120;17.024;2023-01-28T00:06:00;100890;;;-0.6;100.0
68320;BME280;55168;51.120;17.024;2023-01-28T00:07:00;100900;;;-0.6;100.0
68320;BME280;55168;51.120;17.024;2023-01-28T00:08:00;100900;;;-0.6;100.0
68320;BME280;55168;51.120;17.024;2023-01-28T00:09:00;100900;;;-0.6;100.0
68320;BME280;55168;51.120;17.024;2023-01-28T00:10:00;100900;;;-0.6;100.0
68320;BME280;55168;51.120;17.024;2023-01-28T00:11:00;100900;;;-0.6;100.0
68320;BME280;55168;51.120;17.024;2023-01-28T00:12:00;100900;;;-0.6;100.0
68320;BME280;55168;51.120;17.024;2023-01-28T00:13:00;100900;;;-0.6;100.0
68320;BME280;55168;51.120;17.024;2023-01-28T00:14:00;100900;;;-0.6;100.0
68320;BME280;55168;51.120;17.024;2023-01-28T00:15:00;100900;;;-0.7;100.0
68320;BME280;55168;51.120;17.024;2023-01-28T00:16:01;100890;;;-0.6;100.0
68320;BME280;55168;51.120;17.024;2023-01-28T00:17:00;100900;;;-0.7;100.0
68320;BME280;55168;51.120;17.024;2023-01-28T00:18:00;100900;;;-0.7;100.0
68320;BME280;55168;51.120;17.024;2023-01-28T00:19:00;100890;;;-0.7;100.0
68320;BME280;55168;51.120;17.024;2023-01-28T00:20:00;100890;;;-0.6;100.0
68320;BME280;55168;51.120;17.024;2023-01-28T00:21:03;100890;;;-0.6;100.0
68320;BME280;55168;51.120;17.024;2023-01-28T00:22:00;100900;;;-0.6;100.0
68320;BME280;55168;51.120;17.024;2023-01-28T00:23:00;100890;;;-0.6;100.0
68320;BME280;55168;51.120;17.024;2023-01-28T00:24:00;100890;;;-0.7;100.0
68320;BME280;55168;51.120;17.024;2023-01-28T00:25:00;100890;;;-0.7;100.0
68320;BME280;55168;51.120;17.024;2023-01-28T00:26:01;100890;;;-0.6;100.0
68320;BME280;55168;51.120;17.024;2023-01-28T00:27:00;100890;;;-0.6;100.0
68320;BME280;55168;51.120;17.024;2023-01-28T00:28:00;100890;;;-0.6;100.0
68320;BME280;55168;51.120;17.024;2023-01-28T00:29:00;100890;;;-0.6;100.0
68320;BME280;55168;51.120;17.024;2023-01-28T00:30:00;100880;;;-0.6;100.0
68320;BME280;55168;51.120;17.024;2023-01-28T00:31:16;100880;;;-0.6;100.0
68320;BME280;55168;51.120;17.024;2023-01-28T00:32:00;100870;;;-0.6;100.0
68320;BME280;55168;51.120;17.024;2023-01-28T00:33:00;100880;;;-0.5;100.0
68320;BME280;55168;51.120;17.024;2023-01-28T00:34:00;100880;;;-0.6;100.0
68320;BME280;55168;51.120;17.024;2023-01-28T00:35:00;100880;;;-0.6;100.0
68320;BME280;55168;51.120;17.024;2023-01-28T00:36:00;100880;;;-0.6;100.0
68320;BME280;55168;51.120;17.024;2023-01-28T00:37:00;100880;;;-0.5;100.0
68320;BME280;55168;51.120;17.024;2023-01-28T00:38:00;100880;;;-0.5;100.0
68320;BME280;55168;51.120;17.024;2023-01-28T00:39:00;100880;;;-0.5;100.0
68320;BME280;55168;51.120;17.024;2023-01-28T00:40:00;100880;;;-0.5;100.0
68320;BME280;55168;51.120;17.024;2023-01-28T00:41:16;100880;;;-0.5;100.0
68320;BME280;55168;51.120;17.024;2023-01-28T00:42:00;100880;;;-0.5;100.0
68320;BME280;55168;51.120;17.024;2023-01-28T00:43:00;100880;;;-0.5;100.0
68320;BME280;55168;51.120;17.024;2023-01-28T00:44:00;100880;;;-0.5;100.0
68320;BME280;55168;51.120;17.024;2023-01-28T00:45:00;100880;;;-0.5;100.0
68320;BME280;55168;51.120;17.024;2023-01-28T00:46:00;100880;;;-0.5;100.0
68320;BME280;55168;51.120;17.024;2023-01-28T00:47:00;100880;;;-0.5;100.0
68320;BME280;55168;51.120;17.024;2023-01-28T00:48:00;100880;;;-0.5;100.0
68320;BME280;55168;51.120;17.024;2023-01-28T00:49:00;100870;;;-0.5;100.0
68320;BME280;55168;51.120;17.024;2023-01-28T00:50:00;100870;;;-0.5;100.0
68320;BME280;55168;51.120;17.024;2023-01-28T00:51:00;100880;;;-0.4;100.0
68320;BME280;55168;51.120;17.024;2023-01-28T00:52:00;100880;;;-0.5;100.0
68320;BME280;55168;51.120;17.024;2023-01-28T00:53:00;100870;;;-0.5;100.0
68320;BME280;55168;51.120;17.024;2023-01-28T00:54:00;100870;;;-0.5;100.0
68320;BME280;55168;51.120;17.024;2023-01-28T00:55:00;100870;;;-0.5;100.0
68320;BME280;55168;51.120;17.024;2023-01-28T00:56:00;100870;;;-0.6;100.0
68320;BME280;55168;51.120;17.024;2023-01-28T00:57:00;100860;;;-0.6;100.0
68320;BME280;55168;51.120;17.024;2023-01-28T00:58:00;100860;;;-0.6;100.0
68320;BME280;55168;51.120;17.024;2023-01-28T00:59:00;100860;;;-0.5;100.0
68320;BME280;55168;51.120;17.024;2023-01-28T01:00:00;100870;;;-0.5;100.0
68320;BME280;55168;51.120;17.024;2023-01-28T01:01:17;100870;;;-0.6;100.0
68320;BME280;55168;51.120;17.024;2023-01-28T01:02:00;100870;;;-0.6;100.0
68320;BME280;55168;51.120;17.024;2023-01-28T01:03:03;100870;;;-0.6;100.0
68320;BME280;55168;51.120;17.024;2023-01-28T01:04:00;100870;;;-0.5;100.0
68320;BME280;55168;51.120;17.024;2023-01-28T01:05:00;100870;;;-0.5;100.0
68320;BME280;55168;51.120;17.024;2023-01-28T01:06:00;100870;;;-0.5;100.0
68320;BME280;55168;51.120;17.024;2023-01-28T01:07:00;100870;;;-0.6;100.0
68320;BME280;55168;51.120;17.024;2023-01-28T01:08:00;100870;;;-0.6;100.0
68320;BME280;55168;51.120;17.024;2023-01-28T01:09:00;100870;;;-0.6;100.0
68320;BME280;55168;51.120;17.024;2023-01-28T01:10:00;100870;;;-0.6;100.0
68320;BME280;55168;51.120;17.024;2023-01-28T01:11:01;100880;;;-0.6;100.0
68320;BME280;55168;51.120;17.024;2023-01-28T01:12:00;100870;;;-0.6;100.0
68320;BME280;55168;51.120;17.024;2023-01-28T01:13:00;100870;;;-0.6;100.0
68320;BME280;55168;51.120;17.024;2023-01-28T01:14:00;100870;;;-0.6;100.0
68320;BME280;55168;51.120;17.024;2023-01-28T01:15:00;100880;;;-0.5;100.0
68320;BME280;55168;51.120;17.024;2023-01-28T01:16:00;100880;;;-0.5;100.0
68320;BME280;55168;51.120;17.024;2023-01-28T01:17:00;100880;;;-0.5;100.0
68320;BME280;55168;51.120;17.024;2023-01-28T01:18:00;100890;;;-0.5;100.0
68320;BME280;55168;51.120;17.024;2023-01-28T01:19:00;100880;;;-0.6;100.0
68320;BME280;55168;51.120;17.024;2023-01-28T01:20:00;100890;;;-0.6;100.0
68320;BME280;55168;51.120;17.024;2023-01-28T01:21:00;100890;;;-0.5;100.0
68320;BME280;55168;51.120;17.024;2023-01-28T01:22:00;100890;;;-0.5;100.0
68320;BME280;55168;51.120;17.024;2023-01-28T01:23:00;100890;;;-0.5;100.0
68320;BME280;55168;51.120;17.024;2023-01-28T01:24:00;100890;;;-0.5;100.0
68320;BME280;55168;51.120;17.024;2023-01-28T01:25:00;100890;;;-0.5;100.0
68320;BME280;55168;51.120;17.024;2023-01-28T01:26:00;100900;;;-0.5;100.0
68320;BME280;55168;51.120;17.024;2023-01-28T01:27:00;100890;;;-0.5;100.0
68320;BME280;55168;51.120;17.024;2023-01-28T01:28:00;100890;;;-0.6;100.0
68320;BME280;55168;51.120;17.024;2023-01-28T01:29:00;100890;;;-0.6;100.0
68320;BME280;55168;51.120;17.024;2023-01-28T01:30:00;100890;;;-0.6;100.0
68320;BME280;55168;51.120;17.024;2023-01-28T01:31:01;100890;;;-0.5;100.0
68320;BME280;55168;51.120;17.024;2023-01-28T01:32:00;100890;;;-0.5;100.0
68320;BME280;55168;51.120;17.024;2023-01-28T01:33:00;100890;;;-0.5;100.0
68320;BME280;55168;51.120;17.024;2023-01-28T01:34:00;100890;;;-0.5;100.0
68320;BME280;55168;51.120;17.024;2023-01-28T01:35:00;100890;;;-0.4;100.0
68320;BME280;55168;51.120;17.024;2023-01-28T01:36:00;100890;;;-0.4;100.0
68320;BME280;55168;51.120;17.024;2023-01-28T01:37:00;100890;;;-0.4;100.0
68320;BME280;55168;51.120;17.024;2023-01-28T01:38:00;100900;;;-0.4;100.0
68320;BME280;55168;51.120;17.024;2023-01-28T01:39:00;100900;;;-0.4;100.0
68320;BME280;55168;51.120;17.024;2023-01-28T01:40:00;100910;;;-0.5;100.0
68320;BME280;55168;51.120;17.024;2023-01-28T01:41:00;100910;;;-0.5;100.0
68320;BME280;55168;51.120;17.024;2023-01-28T01:42:00;100910;;;-0.5;100.0
68320;BME280;55168;51.120;17.024;2023-01-28T01:43:00;100910;;;-0.5;100.0
68320;BME280;55168;51.120;17.024;2023-01-28T01:44:01;100910;;;-0.6;100.0
68320;BME280;55168;51.120;17.024;2023-01-28T01:46:00;100920;;;-0.6;100.0
68320;BME280;55168;51.120;17.024;2023-01-28T01:47:00;100920;;;-0.6;100.0
68320;BME280;55168;51.120;17.024;2023-01-28T01:48:02;100910;;;-0.6;100.0
68320;BME280;55168;51.120;17.024;2023-01-28T01:49:02;100910;;;-0.6;100.0
68320;BME280;55168;51.120;17.024;2023-01-28T01:50:02;100910;;;-0.6;100.0
68320;BME280;55168;51.120;17.024;2023-01-28T01:51:01;100910;;;-0.6;100.0
68320;BME280;55168;51.120;17.024;2023-01-28T01:52:02;100910;;;-0.6;100.0
68320;BME280;55168;51.120;17.024;2023-01-28T01:53:02;100920;;;-0.6;100.0
68320;BME280;55168;51.120;17.024;2023-01-28T01:54:00;100920;;;-0.6;100.0
68320;BME280;55168;51.120;17.024;2023-01-28T01:55:00;100920;;;-0.6;100.0
68320;BME280;55168;51.120;17.024;2023-01-28T01:56:01;100920;;;-0.6;100.0
68320;BME280;55168;51.120;17.024;2023-01-28T01:57:00;100920;;;-0.6;100.0
68320;BME280;55168;51.120;17.024;2023-01-28T01:58:02;100920;;;-0.6;100.0
68320;BME280;55168;51.120;17.024;2023-01-28T01:59:00;100920;;;-0.6;100.0
68320;BME280;55168;51.120;17.024;2023-01-28T02:00:00;100920;;;-0.6;100.0
68320;BME280;55168;51.120;17.024;2023-01-28T02:01:00;100920;;;-0.6;100.0
68320;BME280;55168;51.120;17.024;2023-01-28T02:02:00;100920;;;-0.7;100.0
68320;BME280;55168;51.120;17.024;2023-01-28T02:03:00;100920;;;-0.7;100.0
68320;BME280;55168;51.120;17.024;2023-01-28T02:04:04;100930;;;-0.7;100.0
68320;BME280;55168;51.120;17.024;2023-01-28T02:05:00;100920;;;-0.7;100.0
68320;BME280;55168;51.120;17.024;2023-01-28T02:06:00;100920;;;-0.8;100.0
68320;BME280;55168;51.120;17.024;2023-01-28T02:07:00;100920;;;-0.7;100.0
68320;BME280;55168;51.120;17.024;2023-01-28T02:08:00;100920;;;-0.8;100.0
68320;BME280;55168;51.120;17.024;2023-01-28T02:09:00;100920;;;-0.8;100.0
68320;BME280;55168;51.120;17.024;2023-01-28T02:10:00;100920;;;-0.8;100.0
68320;BME280;55168;51.120;17.024;2023-01-28T02:11:02;100920;;;-0.8;100.0
68320;BME280;55168;51.120;17.024;2023-01-28T02:12:02;100920;;;-0.8;100.0
68320;BME280;55168;51.120;17.024;2023-01-28T02:13:00;100920;;;-0.8;100.0
68320;BME280;55168;51.120;17.024;2023-01-28T02:14:00;100920;;;-0.8;100.0
68320;BME280;55168;51.120;17.024;2023-01-28T02:15:01;100920;;;-0.8;100.0
68320;BME280;55168;51.120;17.024;2023-01-28T02:16:00;100920;;;-0.8;100.0
68320;BME280;55168;51.120;17.024;2023-01-28T02:17:00;100920;;;-0.9;100.0
68320;BME280;55168;51.120;17.024;2023-01-28T02:18:00;100930;;;-0.9;100.0
68320;BME280;55168;51.120;17.024;2023-01-28T02:19:00;100930;;;-0.9;100.0
68320;BME280;55168;51.120;17.024;2023-01-28T02:20:02;100930;;;-0.9;100.0
68320;BME280;55168;51.120;17.024;2023-01-28T02:21:11;100930;;;-0.9;100.0
68320;BME280;55168;51.120;17.024;2023-01-28T02:22:04;100930;;;-0.9;100.0
68320;BME280;55168;51.120;17.024;2023-01-28T02:23:06;100920;;;-0.9;100.0
68320;BME280;55168;51.120;17.024;2023-01-28T02:25:08;100920;;;-0.9;100.0
68320;BME280;55168;51.120;17.024;2023-01-28T02:26:09;100930;;;-0.9;100.0
68320;BME280;55168;51.120;17.024;2023-01-28T02:27:05;100930;;;-0.9;100.0
68320;BME280;55168;51.120;17.024;2023-01-28T02:29:04;100930;;;-0.9;100.0
68320;BME280;55168;51.120;17.024;2023-01-28T02:33:02;100930;;;-1.0;100.0
68320;BME280;55168;51.120;17.024;2023-01-28T02:36:02;100930;;;-0.9;100.0
68320;BME280;55168;51.120;17.024;2023-01-28T02:37:02;100930;;;-0.9;100.0
68320;BME280;55168;51.120;17.024;2023-01-28T02:38:08;100940;;;-1.0;100.0
68320;BME280;55168;51.120;17.024;2023-01-28T02:39:00;100930;;;-1.0;100.0
68320;BME280;55168;51.120;17.024;2023-01-28T02:40:01;100930;;;-1.0;100.0
68320;BME280;55168;51.120;17.024;2023-01-28T02:41:01;100940;;;-1.0;100.0
68320;BME280;55168;51.120;17.024;2023-01-28T02:42:03;100930;;;-1.0;100.0
68320;BME280;55168;51.120;17.024;2023-01-28T02:43:00;100930;;;-1.0;100.0
68320;BME280;55168;51.120;17.024;2023-01-28T02:44:00;100930;;;-1.0;100.0
68320;BME280;55168;51.120;17.024;2023-01-28T02:45:00;100930;;;-0.9;100.0
68320;BME280;55168;51.120;17.024;2023-01-28T02:46:01;100940;;;-0.9;100.0
68320;BME280;55168;51.120;17.024;2023-01-28T02:47:00;100930;;;-0.9;100.0
68320;BME280;55168;51.120;17.024;2023-01-28T02:48:00;100930;;;-1.0;100.0
68320;BME280;55168;51.120;17.024;2023-01-28T02:49:00;100940;;;-1.0;100.0
68320;BME280;55168;51.120;17.024;2023-01-28T02:50:02;100930;;;-1.0;100.0
68320;BME280;55168;51.120;17.024;2023-01-28T02:51:02;100930;;;-1.0;100.0
68320;BME280;55168;51.120;17.024;2023-01-28T02:54:06;100930;;;-1.0;100.0
68320;BME280;55168;51.120;17.024;2023-01-28T02:55:03;100940;;;-1.0;100.0
68320;BME280;55168;51.120;17.024;2023-01-28T02:57:04;100930;;;-1.0;100.0
68320;BME280;55168;51.120;17.024;2023-01-28T02:58:03;100930;;;-1.0;100.0
68320;BME280;55168;51.120;17.024;2023-01-28T03:01:03;100930;;;-1.0;100.0
68320;BME280;55168;51.120;17.024;2023-01-28T03:02:07;100930;;;-1.0;100.0
68320;BME280;55168;51.120;17.024;2023-01-28T03:03:06;100930;;;-1.0;100.0
68320;BME280;55168;51.120;17.024;2023-01-28T03:04:01;100930;;;-1.0;100.0
68320;BME280;55168;51.120;17.024;2023-01-28T03:05:04;100930;;;-1.0;100.0
68320;BME280;55168;51.120;17.024;2023-01-28T03:06:02;100930;;;-1.0;100.0
68320;BME280;55168;51.120;17.024;2023-01-28T03:07:01;100930;;;-1.0;100.0
68320;BME280;55168;51.120;17.024;2023-01-28T03:08:00;100930;;;-1.0;100.0
68320;BME280;55168;51.120;17.024;2023-01-28T03:09:02;100930;;;-1.0;100.0
68320;BME280;55168;51.120;17.024;2023-01-28T03:10:00;100930;;;-1.0;100.0
68320;BME280;55168;51.120;17.024;2023-01-28T03:11:00;100930;;;-0.9;100.0
68320;BME280;55168;51.120;17.024;2023-01-28T03:13:00;100930;;;-1.0;100.0
68320;BME280;55168;51.120;17.024;2023-01-28T03:14:00;100930;;;-1.0;100.0
68320;BME280;55168;51.120;17.024;2023-01-28T03:15:02;100930;;;-1.1;100.0
68320;BME280;55168;51.120;17.024;2023-01-28T03:16:00;100940;;;-1.1;100.0
68320;BME280;55168;51.120;17.024;2023-01-28T03:17:00;100930;;;-1.0;100.0
68320;BME280;55168;51.120;17.024;2023-01-28T03:18:01;100930;;;-0.9;100.0
68320;BME280;55168;51.120;17.024;2023-01-28T03:19:00;100940;;;-0.9;100.0
68320;BME280;55168;51.120;17.024;2023-01-28T03:20:00;100940;;;-0.9;100.0
68320;BME280;55168;51.120;17.024;2023-01-28T03:21:04;100940;;;-1.0;100.0
68320;BME280;55168;51.120;17.024;2023-01-28T03:22:00;100940;;;-0.9;100.0
68320;BME280;55168;51.120;17.024;2023-01-28T03:23:00;100940;;;-0.9;100.0
68320;BME280;55168;51.120;17.024;2023-01-28T03:24:04;100940;;;-0.9;100.0
68320;BME280;55168;51.120;17.024;2023-01-28T03:25:00;100940;;;-1.0;100.0
68320;BME280;55168;51.120;17.024;2023-01-28T03:26:00;100940;;;-1.1;100.0
68320;BME280;55168;51.120;17.024;2023-01-28T03:27:01;100940;;;-1.1;100.0
68320;BME280;55168;51.120;17.024;2023-01-28T03:28:00;100940;;;-1.1;100.0
68320;BME280;55168;51.120;17.024;2023-01-28T03:29:02;100940;;;-1.1;100.0
68320;BME280;55168;51.120;17.024;2023-01-28T03:30:02;100940;;;-1.1;100.0
68320;BME280;55168;51.120;17.024;2023-01-28T03:32:00;100930;;;-1.1;100.0
68320;BME280;55168;51.120;17.024;2023-01-28T03:33:00;100930;;;-1.1;100.0
68320;BME280;55168;51.120;17.024;2023-01-28T03:34:00;100930;;;-1.1;100.0
68320;BME280;55168;51.120;17.024;2023-01-28T03:35:00;100930;;;-1.1;100.0
68320;BME280;55168;51.120;17.024;2023-01-28T03:36:00;100930;;;-1.1;100.0
68320;BME280;55168;51.120;17.024;2023-01-28T03:37:00;100940;;;-1.1;100.0
68320;BME280;55168;51.120;17.024;2023-01-28T03:38:00;100940;;;-1.1;100.0
68320;BME280;55168;51.120;17.024;2023-01-28T03:39:00;100940;;;-1.1;100.0
68320;BME280;55168;51.120;17.024;2023-01-28T03:40:01;100940;;;-1.1;100.0
68320;BME280;55168;51.120;17.024;2023-01-28T03:41:01;100940;;;-1.1;100.0
68320;BME280;55168;51.120;17.024;2023-01-28T03:42:02;100940;;;-1.1;100.0
68320;BME280;55168;51.120;17.024;2023-01-28T03:43:00;100940;;;-1.0;100.0
68320;BME280;55168;51.120;17.024;2023-01-28T03:44:00;100930;;;-1.0;100.0
68320;BME280;55168;51.120;17.024;2023-01-28T03:45:00;100940;;;-1.0;100.0
68320;BME280;55168;51.120;17.024;2023-01-28T03:46:00;100940;;;-1.0;100.0
68320;BME280;55168;51.120;17.024;2023-01-28T03:47:00;100940;;;-1.0;100.0
68320;BME280;55168;51.120;17.024;2023-01-28T03:48:00;100930;;;-1.0;100.0
68320;BME280;55168;51.120;17.024;2023-01-28T03:49:00;100940;;;-1.0;100.0
68320;BME280;55168;51.120;17.024;2023-01-28T03:50:00;100940;;;-1.1;100.0
68320;BME280;55168;51.120;17.024;2023-01-28T03:51:00;100930;;;-1.2;100.0
68320;BME280;55168;51.120;17.024;2023-01-28T03:52:00;100940;;;-1.2;100.0
68320;BME280;55168;51.120;17.024;2023-01-28T03:53:00;100940;;;-1.2;100.0
68320;BME280;55168;51.120;17.024;2023-01-28T03:54:00;100940;;;-1.2;100.0
68320;BME280;55168;51.120;17.024;2023-01-28T03:55:00;100940;;;-1.2;100.0
68320;BME280;55168;51.120;17.024;2023-01-28T03:56:00;100940;;;-1.2;100.0
68320;BME280;55168;51.120;17.024;2023-01-28T03:57:00;100940;;;-1.2;100.0
68320;BME280;55168;51.120;17.024;2023-01-28T03:58:00;100940;;;-1.3;100.0
68320;BME280;55168;51.120;17.024;2023-01-28T03:59:00;100940;;;-1.2;100.0
68320;BME280;55168;51.120;17.024;2023-01-28T04:00:00;100940;;;-1.2;100.0
68320;BME280;55168;51.120;17.024;2023-01-28T04:01:00;100940;;;-1.2;100.0
68320;BME280;55168;51.120;17.024;2023-01-28T04:02:00;100940;;;-1.2;100.0
68320;BME280;55168;51.120;17.024;2023-01-28T04:03:00;100940;;;-1.2;100.0
68320;BME280;55168;51.120;17.024;2023-01-28T04:04:00;100940;;;-1.2;100.0
68320;BME280;55168;51.120;17.024;2023-01-28T04:05:00;100950;;;-1.2;100.0
68320;BME280;55168;51.120;17.024;2023-01-28T04:06:01;100940;;;-1.3;100.0
68320;BME280;55168;51.120;17.024;2023-01-28T04:07:00;100940;;;-1.2;100.0
68320;BME280;55168;51.120;17.024;2023-01-28T04:08:00;100940;;;-1.2;100.0
68320;BME280;55168;51.120;17.024;2023-01-28T04:09:00;100940;;;-1.3;100.0
68320;BME280;55168;51.120;17.024;2023-01-28T04:10:00;100950;;;-1.3;100.0
68320;BME280;55168;51.120;17.024;2023-01-28T04:11:00;100950;;;-1.2;100.0
68320;BME280;55168;51.120;17.024;2023-01-28T04:12:00;100950;;;-1.2;100.0
68320;BME280;55168;51.120;17.024;2023-01-28T04:13:00;100950;;;-1.3;100.0
68320;BME280;55168;51.120;17.024;2023-01-28T04:14:00;100950;;;-1.2;100.0
68320;BME280;55168;51.120;17.024;2023-01-28T04:15:00;100950;;;-1.1;100.0
68320;BME280;55168;51.120;17.024;2023-01-28T04:16:00;100950;;;-1.1;100.0
68320;BME280;55168;51.120;17.024;2023-01-28T04:17:00;100950;;;-1.1;100.0
68320;BME280;55168;51.120;17.024;2023-01-28T04:18:00;100950;;;-1.0;100.0
68320;BME280;55168;51.120;17.024;2023-01-28T04:19:00;100950;;;-1.0;100.0
68320;BME280;55168;51.120;17.024;2023-01-28T04:20:00;100960;;;-1.1;100.0
68320;BME280;55168;51.120;17.024;2023-01-28T04:21:00;100950;;;-1.1;100.0
68320;BME280;55168;51.120;17.024;2023-01-28T04:22:00;100960;;;-1.2;100.0
68320;BME280;55168;51.120;17.024;2023-01-28T04:23:00;100950;;;-1.2;100.0
68320;BME280;55168;51.120;17.024;2023-01-28T04:24:00;100950;;;-1.2;100.0
68320;BME280;55168;51.120;17.024;2023-01-28T04:25:00;100950;;;-1.2;100.0
68320;BME280;55168;51.120;17.024;2023-01-28T04:26:00;100950;;;-1.2;100.0
68320;BME280;55168;51.120;17.024;2023-01-28T04:27:00;100950;;;-1.2;100.0
68320;BME280;55168;51.120;17.024;2023-01-28T04:28:00;100950;;;-1.2;100.0
68320;BME280;55168;51.120;17.024;2023-01-28T04:29:00;100950;;;-1.3;100.0
68320;BME280;55168;51.120;17.024;2023-01-28T04:30:00;100940;;;-1.2;100.0
68320;BME280;55168;51.120;17.024;2023-01-28T04:31:00;100950;;;-1.2;100.0
68320;BME280;55168;51.120;17.024;2023-01-28T04:32:00;100940;;;-1.2;100.0
68320;BME280;55168;51.120;17.024;2023-01-28T04:33:00;100960;;;-1.2;100.0
68320;BME280;55168;51.120;17.024;2023-01-28T04:34:00;100950;;;-1.2;100.0
68320;BME280;55168;51.120;17.024;2023-01-28T04:35:00;100960;;;-1.3;100.0
68320;BME280;55168;51.120;17.024;2023-01-28T04:36:00;100970;;;-1.3;100.0
68320;BME280;55168;51.120;17.024;2023-01-28T04:37:00;100960;;;-1.3;100.0
68320;BME280;55168;51.120;17.024;2023-01-28T04:38:00;100960;;;-1.3;100.0
68320;BME280;55168;51.120;17.024;2023-01-28T04:39:00;100960;;;-1.3;100.0
68320;BME280;55168;51.120;17.024;2023-01-28T04:40:00;100960;;;-1.3;100.0
68320;BME280;55168;51.120;17.024;2023-01-28T04:41:00;100970;;;-1.2;100.0
68320;BME280;55168;51.120;17.024;2023-01-28T04:42:00;100970;;;-1.2;100.0
68320;BME280;55168;51.120;17.024;2023-01-28T04:43:00;100960;;;-1.2;100.0
68320;BME280;55168;51.120;17.024;2023-01-28T04:44:00;100960;;;-1.2;100.0
68320;BME280;55168;51.120;17.024;2023-01-28T04:45:00;100960;;;-1.2;100.0
68320;BME280;55168;51.120;17.024;2023-01-28T04:46:00;100970;;;-1.2;100.0
68320;BME280;55168;51.120;17.024;2023-01-28T04:47:00;100970;;;-1.2;100.0
68320;BME280;55168;51.120;17.024;2023-01-28T04:48:00;100970;;;-1.2;100.0
68320;BME280;55168;51.120;17.024;2023-01-28T04:49:00;100980;;;-1.2;100.0
68320;BME280;55168;51.120;17.024;2023-01-28T04:50:00;100970;;;-1.3;100.0
68320;BME280;55168;51.120;17.024;2023-01-28T04:51:00;100980;;;-1.3;100.0
68320;BME280;55168;51.120;17.024;2023-01-28T04:52:00;100970;;;-1.3;100.0
68320;BME280;55168;51.120;17.024;2023-01-28T04:53:00;100970;;;-1.2;100.0
68320;BME280;55168;51.120;17.024;2023-01-28T04:54:00;100970;;;-1.2;100.0
68320;BME280;55168;51.120;17.024;2023-01-28T04:55:00;100970;;;-1.2;100.0
68320;BME280;55168;51.120;17.024;2023-01-28T04:56:00;100970;;;-1.2;100.0
68320;BME280;55168;51.120;17.024;2023-01-28T04:57:00;100970;;;-1.2;100.0
68320;BME280;55168;51.120;17.024;2023-01-28T04:58:00;100980;;;-1.2;100.0
68320;BME280;55168;51.120;17.024;2023-01-28T04:59:00;100970;;;-1.3;100.0
68320;BME280;55168;51.120;17.024;2023-01-28T05:00:00;100980;;;-1.2;100.0
68320;BME280;55168;51.120;17.024;2023-01-28T05:01:00;100980;;;-1.3;100.0
68320;BME280;55168;51.120;17.024;2023-01-28T05:02:00;100980;;;-1.3;100.0
68320;BME280;55168;51.120;17.024;2023-01-28T05:03:00;100980;;;-1.2;100.0
68320;BME280;55168;51.120;17.024;2023-01-28T05:04:00;100980;;;-1.2;100.0
68320;BME280;55168;51.120;17.024;2023-01-28T05:05:00;100980;;;-1.4;100.0
68320;BME280;55168;51.120;17.024;2023-01-28T05:06:00;100980;;;-1.4;100.0
68320;BME280;55168;51.120;17.024;2023-01-28T05:07:00;100980;;;-1.5;100.0
68320;BME280;55168;51.120;17.024;2023-01-28T05:08:00;100980;;;-1.5;100.0
68320;BME280;55168;51.120;17.024;2023-01-28T05:09:00;100980;;;-1.5;100.0
68320;BME280;55168;51.120;17.024;2023-01-28T05:10:00;100980;;;-1.5;100.0
68320;BME280;55168;51.120;17.024;2023-01-28T05:11:00;100980;;;-1.5;100.0
68320;BME280;55168;51.120;17.024;2023-01-28T05:12:00;100980;;;-1.5;100.0
68320;BME280;55168;51.120;17.024;2023-01-28T05:13:00;100980;;;-1.4;100.0
68320;BME280;55168;51.120;17.024;2023-01-28T05:14:00;100980;;;-1.4;100.0
68320;BME280;55168;51.120;17.024;2023-01-28T05:15:00;100990;;;-1.4;100.0
68320;BME280;55168;51.120;17.024;2023-01-28T05:16:00;100980;;;-1.5;100.0
68320;BME280;55168;51.120;17.024;2023-01-28T05:17:00;100990;;;-1.5;100.0
68320;BME280;55168;51.120;17.024;2023-01-28T05:18:00;100990;;;-1.6;100.0
68320;BME280;55168;51.120;17.024;2023-01-28T05:19:00;101000;;;-1.5;100.0
68320;BME280;55168;51.120;17.024;2023-01-28T05:20:00;100990;;;-1.5;100.0
68320;BME280;55168;51.120;17.024;2023-01-28T05:21:00;100990;;;-1.5;100.0
68320;BME280;55168;51.120;17.024;2023-01-28T05:22:00;101000;;;-1.5;100.0
68320;BME280;55168;51.120;17.024;2023-01-28T05:23:00;101000;;;-1.5;100.0
68320;BME280;55168;51.120;17.024;2023-01-28T05:24:00;101000;;;-1.6;100.0
68320;BME280;55168;51.120;17.024;2023-01-28T05:25:00;101000;;;-1.6;100.0
68320;BME280;55168;51.120;17.024;2023-01-28T05:26:00;101000;;;-1.6;100.0
68320;BME280;55168;51.120;17.024;2023-01-28T05:27:00;100990;;;-1.6;100.0
68320;BME280;55168;51.120;17.024;2023-01-28T05:28:00;101000;;;-1.6;100.0
68320;BME280;55168;51.120;17.024;2023-01-28T05:29:00;101000;;;-1.6;100.0
68320;BME280;55168;51.120;17.024;2023-01-28T05:30:00;101000;;;-1.5;100.0
68320;BME280;55168;51.120;17.024;2023-01-28T05:31:02;101000;;;-1.6;100.0
68320;BME280;55168;51.120;17.024;2023-01-28T05:32:00;101000;;;-1.6;100.0
68320;BME280;55168;51.120;17.024;2023-01-28T05:33:00;101000;;;-1.6;100.0
68320;BME280;55168;51.120;17.024;2023-01-28T05:34:00;101010;;;-1.6;100.0
68320;BME280;55168;51.120;17.024;2023-01-28T05:35:00;101010;;;-1.5;100.0
68320;BME280;55168;51.120;17.024;2023-01-28T05:36:00;101010;;;-1.5;100.0
68320;BME280;55168;51.120;17.024;2023-01-28T05:37:00;101010;;;-1.5;100.0
68320;BME280;55168;51.120;17.024;2023-01-28T05:38:00;101000;;;-1.6;100.0
68320;BME280;55168;51.120;17.024;2023-01-28T05:39:00;101010;;;-1.6;100.0
68320;BME280;55168;51.120;17.024;2023-01-28T05:40:00;101000;;;-1.6;100.0
68320;BME280;55168;51.120;17.024;2023-01-28T05:41:00;101010;;;-1.6;100.0